Telluride, Colorado
Current Conditions -  °F | °C
As of 4:15 AM on Saturday 25 Oct 2014 (Local Time) from KTEX Reporting Station
Clear Clear  
Wind Chill: 39°   Ceiling: Unl
Heat Index: 42°   Visibility: 10mi
Dew Point: 21°   Wind: 5mph
Humidity: 43%   Direction: 110°ESE
Pressure: 30.5"   Gusts: NA
Location:  37.94°N, 107.81°W
Report Text: KTEX 251015Z AUTO 11004KT 10SM CLR 06/M06 A3050 RMK AO2 T00551062
Loading
Personal Weather Stations






























Interactive Weather Map
Tropical Storm Tracking
New forecast layout! Learn more

10-Day Weather Forecast

Advertisements
Track Severe Weather on mobile